Latest Weather Observations for Jandakot

IDW60801

Issued at 8:32 pm WST Tuesday 30 June 2015 (issued every 30 minutes, with the page automatically refreshed every 10 minutes)

About weather observations | Map of weather stations | Latest weather observations for WA | Other Formats
Station Details ID: 009172 Name: JANDAKOT AERO Lat: -32.10 Lon: 115.88 Height: 30.0 m
Data from the previous 72 hours. | See also: Recent months at Jandakot
Date/Time
WST
Temp
°C
App
Temp
°C
Dew
Point
Rel
Hum
%
Delta-T
°C
Wind Press
QNH
hPa
Press
MSL
hPa
Rain
since 9 am
mm
Dir
 
Spd
km/h
Gust
km/h
Spd
kts
Gust
kts
30/08:30pm 14.8 14.8 11.2 79 1.9 E 2 7 1 4 1023.5 1023.5 0.0
30/08:00pm 15.1 14.2 11.4 78 2.0 ENE 7 7 4 4 1023.0 1023.0 0.0
30/07:30pm 15.0 14.1 11.2 78 2.0 NE 7 9 4 5 1023.2 1023.2 0.0
30/07:00pm 15.4 14.4 11.1 75 2.3 ENE 7 11 4 6 1023.1 1023.1 0.0
30/06:30pm 16.5 15.8 11.5 72 2.7 NNE 6 7 3 4 1022.6 1022.6 0.0
30/06:00pm 17.7 16.9 11.6 67 3.3 WNW 7 7 4 4 1022.4 1022.4 0.0
30/05:30pm 18.3 17.2 10.7 61 4.1 NNW 7 9 4 5 1022.1 1022.1 0.0
30/05:00pm 18.9 17.4 10.7 59 4.4 NNW 9 11 5 6 1022.3 1022.3 0.0
30/04:30pm 19.6 18.0 10.3 55 5.0 NW 9 13 5 7 1022.3 1022.3 0.0
30/04:00pm 20.1 17.2 9.6 51 5.6 NW 15 19 8 10 1022.4 1022.4 0.0
30/03:30pm 20.6 17.8 7.0 41 6.9 NW 11 17 6 9 1022.0 1022.0 0.0
30/03:00pm 21.1 16.8 5.3 35 7.8 NW 17 24 9 13 1022.2 1022.2 0.0
30/02:30pm 21.5 18.0 5.3 34 8.0 NNW 13 20 7 11 1022.1 1022.1 0.0
30/02:00pm 21.4 17.2 4.0 32 8.4 NNW 15 20 8 11 1022.1 1022.1 0.0
30/01:30pm 21.9 17.3 3.9 30 8.7 N 17 22 9 12 1021.6 1021.6 0.0
30/01:00pm 21.3 16.2 2.8 29 8.7 NNE 19 28 10 15 1021.7 1021.7 0.0
30/12:30pm 21.0 15.7 2.9 30 8.5 NNE 20 24 11 13 1022.1 1022.1 0.0
30/12:00pm 20.2 15.1 3.2 32 8.0 NNE 19 24 10 13 1022.6 1022.6 0.0
30/11:30am 20.1 15.5 3.9 34 7.7 NNE 17 22 9 12 1023.5 1023.5 0.0
30/11:00am 19.1 13.4 2.6 33 7.6 NNE 22 28 12 15 1023.7 1023.7 0.0
30/10:30am 18.6 12.9 2.7 34 7.3 NNE 22 26 12 14 1024.0 1024.0 0.0
30/10:00am 17.4 12.7 3.0 38 6.6 NNE 17 24 9 13 1024.1 1024.1 0.0
30/09:30am 15.2 12.6 6.0 54 4.4 NNE 9 11 5 6 1024.1 1024.1 0.0
30/09:00am 12.8 9.8 6.0 63 3.2 N 11 11 6 6 1023.7 1023.7 0.0
30/08:30am 8.8 6.8 6.4 85 1.1 NNE 6 7 3 4 1023.5 1023.5 0.0
30/08:00am 7.6 4.9 5.8 88 0.8 NE 9 11 5 6 1023.4 1023.4 0.0
30/07:30am 6.4 3.9 5.0 91 0.6 ENE 7 9 4 5 1023.3 1023.3 0.0
30/07:00am 7.0 4.5 4.9 86 0.9 NNE 7 7 4 4 1023.6 1023.6 0.0
30/06:30am 4.5 1.3 3.3 92 0.5 NE 9 11 5 6 1023.3 1023.3 0.0
30/06:00am 4.1 2.6 3.1 93 0.4 CALM 0 0 0 0 1023.3 1023.3 0.0
30/05:30am 4.5 3.1 3.5 93 0.4 CALM 0 0 0 0 1023.3 1023.3 0.0
30/05:00am 4.7 3.3 3.7 93 0.4 CALM 0 0 0 0 1023.1 1023.1 0.0
30/04:30am 4.5 2.7 3.3 92 0.5 NW 2 6 1 3 1023.1 1023.1 0.0
30/04:00am 5.4 4.2 4.5 94 0.4 CALM 0 0 0 0 1022.8 1022.8 0.0
30/03:30am 5.3 2.9 4.1 92 0.5 ENE 6 7 3 4 1022.7 1022.7 0.0
30/03:00am 4.7 2.9 3.7 93 0.4 NNE 2 7 1 4 1023.1 1023.1 0.0
30/02:30am 5.2 3.9 4.0 92 0.5 CALM 0 0 0 0 1023.2 1023.2 0.0
30/02:00am 5.7 3.2 4.0 89 0.7 NNW 6 6 3 3 1023.2 1023.2 0.0
30/01:30am 6.4 4.5 4.8 89 0.7 N 4 6 2 3 1023.1 1023.1 0.0
30/01:00am 7.2 6.2 5.6 89 0.7 CALM 0 0 0 0 1022.9 1022.9 0.0
30/12:30am 7.2 5.0 6.1 93 0.5 ENE 7 9 4 5 1022.9 1022.9 0.0
30/12:00am 6.7 4.2 4.9 88 0.8 NE 7 9 4 5 1023.2 1023.2 0.0
 
Date/Time
WST
Temp
°C
App
Temp
°C
Dew
Point
Rel
Hum
%
Delta-T
°C
Wind Press
QNH
hPa
Press
MSL
hPa
Rain
since 9 am
mm
Dir
 
Spd
km/h
Gust
km/h
Spd
kts
Gust
kts
29/11:30pm 8.0 5.4 6.2 88 0.8 NE 9 9 5 5 1023.5 1023.5 0.0
29/11:00pm 8.2 6.0 6.0 86 1.0 NE 7 9 4 5 1023.5 1023.5 0.0
29/10:30pm 7.2 4.8 5.2 87 0.9 ENE 7 9 4 5 1023.4 1023.4 0.0
29/10:00pm 8.2 6.9 6.2 87 0.9 ENE 2 6 1 3 1023.6 1023.6 0.0
29/09:30pm 7.5 4.8 5.5 87 0.9 ESE 9 13 5 7 1023.7 1023.7 0.0
29/09:00pm 9.1 7.9 6.3 83 1.3 SE 2 6 1 3 1023.8 1023.8 0.0
29/08:30pm 9.5 7.9 6.2 80 1.5 SSE 4 7 2 4 1023.4 1023.4 0.0
29/08:00pm 9.5 8.6 6.0 79 1.6 CALM 0 6 0 3 1023.4 1023.4 0.0
29/07:30pm 10.7 9.6 6.9 77 1.8 ESE 2 6 1 3 1023.4 1023.4 0.0
29/07:00pm 10.9 9.0 6.6 75 2.0 S 6 11 3 6 1023.5 1023.5 0.0
29/06:30pm 12.5 11.9 7.3 70 2.5 CALM 0 0 0 0 1023.4 1023.4 0.0
29/06:00pm 14.4 13.8 7.5 63 3.4 CALM 0 0 0 0 1023.3 1023.3 0.0
29/05:30pm 16.0 14.4 8.7 62 3.7 E 7 9 4 5 1023.2 1023.2 0.0
29/05:00pm 20.0 17.3 5.8 39 7.0 ENE 9 11 5 6 1023.0 1023.0 0.0
29/04:30pm 21.5 18.7 5.3 34 8.0 NE 9 11 5 6 1022.9 1022.9 0.0
29/04:00pm 22.5 19.1 3.9 29 9.0 NE 11 15 6 8 1022.9 1022.9 0.0
29/03:30pm 23.0 19.8 3.2 27 9.5 NNE 9 13 5 7 1023.0 1023.0 0.0
29/03:00pm 22.9 19.3 3.0 27 9.5 N 11 15 6 8 1023.1 1023.1 0.0
29/02:30pm 22.8 19.2 3.2 27 9.4 N 11 15 6 8 1023.1 1023.1 0.0
29/02:00pm 22.4 18.1 3.1 28 9.2 N 15 20 8 11 1023.4 1023.4 0.0
29/01:30pm 22.2 18.2 3.1 28 9.1 N 13 20 7 11 1023.6 1023.6 0.0
29/01:00pm 21.5 17.5 2.8 29 8.8 N 13 19 7 10 1023.9 1023.9 0.0
29/12:30pm 21.4 17.7 4.2 32 8.3 NNE 13 15 7 8 1024.4 1024.4 0.0
29/12:00pm 20.4 15.6 2.8 31 8.2 N 17 20 9 11 1024.8 1024.8 0.0
29/11:30am 19.8 14.6 2.5 31 8.0 N 19 26 10 14 1025.1 1025.1 0.0
29/11:00am 19.0 14.3 3.0 34 7.4 NNE 17 26 9 14 1025.6 1025.6 0.0
29/10:30am 17.8 11.9 2.0 34 7.1 NNE 22 30 12 16 1025.8 1025.8 0.0
29/10:00am 17.1 11.9 2.5 37 6.6 NNE 19 26 10 14 1026.0 1026.0 0.0
29/09:30am 15.8 12.2 3.2 43 5.7 NNE 11 20 6 11 1025.9 1025.9 0.0
29/09:00am 13.3 11.8 6.6 64 3.2 ENE 4 7 2 4 1025.9 1025.9 0.0
29/08:30am 8.4 6.6 7.3 93 0.5 E 6 7 3 4 1026.0 1026.0 0.0
29/08:00am 5.8 3.2 4.4 91 0.6 E 7 9 4 5 1025.6 1025.6 0.0
29/07:30am 4.4 1.6 3.4 93 0.4 E 7 9 4 5 1025.4 1025.4 0.0
29/07:00am 4.4 1.7 3.7 95 0.3 E 7 9 4 5 1025.2 1025.2 0.0
29/06:30am 5.2 2.8 4.3 94 0.4 E 6 7 3 4 1025.0 1025.0 0.0
29/06:00am 5.4 2.9 4.5 94 0.4 E 7 9 4 5 1025.1 1025.1 0.0
29/05:30am 5.6 2.7 4.4 92 0.5 E 9 9 5 5 1025.1 1025.1 0.0
29/05:00am 5.7 3.2 4.5 92 0.5 E 7 9 4 5 1025.1 1025.1 0.0
29/04:30am 6.6 3.4 5.0 89 0.7 ESE 11 13 6 7 1025.0 1025.0 0.0
29/04:00am 7.0 3.8 4.9 86 0.9 E 11 13 6 7 1025.2 1025.2 0.0
29/03:30am 6.5 2.8 4.6 88 0.8 E 13 15 7 8 1025.3 1025.3 0.0
29/03:00am 5.8 3.3 4.6 92 0.5 E 7 9 4 5 1025.5 1025.5 0.0
29/02:30am 7.9 5.9 6.1 88 0.8 E 6 7 3 4 1025.7 1025.7 0.0
29/02:00am 8.2 6.0 6.2 87 0.9 ESE 7 9 4 5 1025.8 1025.8 0.0
29/01:30am 8.9 6.9 6.3 84 1.2 E 6 7 3 4 1026.1 1026.1 0.0
29/01:00am 10.1 7.2 6.4 78 1.7 E 11 15 6 8 1026.1 1026.1 0.0
29/12:30am 10.4 7.5 6.3 76 1.9 E 11 17 6 9 1026.5 1026.5 0.0
29/12:00am 10.8 7.9 6.3 74 2.1 E 11 15 6 8 1026.7 1026.7 0.0
 
Date/Time
WST
Temp
°C
App
Temp
°C
Dew
Point
Rel
Hum
%
Delta-T
°C
Wind Press
QNH
hPa
Press
MSL
hPa
Rain
since 9 am
mm
Dir
 
Spd
km/h
Gust
km/h
Spd
kts
Gust
kts
28/11:30pm 10.7 7.7 6.2 74 2.1 E 11 15 6 8 1026.8 1026.8 0.0
28/11:00pm 11.4 7.6 5.8 68 2.6 ESE 15 19 8 10 1026.8 1026.8 0.0
28/10:30pm 11.7 7.9 5.6 66 2.8 ESE 15 20 8 11 1026.7 1026.7 0.0
28/10:00pm 10.0 7.8 6.3 78 1.7 E 7 9 4 5 1026.9 1026.9 0.0
28/09:30pm 11.4 8.5 6.5 72 2.3 ESE 11 13 6 7 1027.2 1027.2 0.0
28/09:00pm 12.1 8.8 6.6 69 2.6 ESE 13 15 7 8 1027.1 1027.1 0.0
28/08:30pm 12.0 8.8 6.7 70 2.5 ESE 13 19 7 10 1027.2 1027.2 0.0
28/08:00pm 12.2 8.7 7.2 71 2.4 E 15 24 8 13 1027.1 1027.1 0.0
28/07:30pm 10.7 7.6 7.1 78 1.7 ESE 13 15 7 8 1027.1 1027.1 0.0
28/07:00pm 10.9 7.8 7.1 77 1.8 SE 13 13 7 7 1027.1 1027.1 0.0
28/06:30pm 11.5 8.4 7.1 74 2.1 SE 13 15 7 8 1027.0 1027.0 0.0
28/06:00pm 12.1 9.3 7.1 71 2.4 SE 11 11 6 6 1027.0 1027.0 0.0
28/05:30pm 15.6 13.6 7.0 56 4.2 ESE 7 11 4 6 1027.0 1027.0 0.0
28/05:00pm 17.4 14.5 6.6 49 5.3 E 11 15 6 8 1026.8 1026.8 0.0
28/04:30pm 18.6 15.3 6.5 45 6.0 E 13 20 7 11 1026.8 1026.8 0.0
28/04:00pm 19.4 15.5 5.5 40 6.8 ENE 15 20 8 11 1027.0 1027.0 0.0
28/03:30pm 19.5 15.2 5.3 39 6.9 ENE 17 24 9 13 1026.9 1026.9 0.0
28/03:00pm 19.9 16.1 5.6 39 7.0 ENE 15 20 8 11 1027.0 1027.0 0.0
28/02:30pm 19.9 15.3 5.4 38 7.1 NE 19 26 10 14 1026.8 1026.8 0.0
28/02:00pm 19.5 15.3 5.6 40 6.8 ENE 17 22 9 12 1027.1 1027.1 0.0
28/01:30pm 19.4 15.2 5.5 40 6.8 NE 17 24 9 13 1027.3 1027.3 0.0
28/01:00pm 18.8 14.3 5.9 43 6.3 ENE 19 26 10 14 1027.5 1027.5 0.0
28/12:30pm 17.8 12.7 6.1 46 5.7 E 22 28 12 15 1028.0 1028.0 0.0
28/12:00pm 17.6 12.9 6.1 47 5.6 ENE 20 28 11 15 1028.6 1028.6 0.0
28/11:30am 17.1 11.7 6.5 49 5.2 NE 24 30 13 16 1029.3 1029.3 0.0
28/11:00am 16.3 11.2 5.9 50 5.0 NE 22 32 12 17 1029.7 1029.7 0.0
28/10:30am 16.1 11.4 6.1 51 4.9 NE 20 28 11 15 1029.9 1029.9 0.0
28/10:00am 15.1 9.5 5.6 53 4.5 NE 24 33 13 18 1029.9 1029.9 0.0
28/09:30am 14.3 9.7 6.3 58 3.8 NE 20 26 11 14 1029.8 1029.8 0.0
28/09:00am 13.4 8.4 6.5 63 3.3 ENE 22 30 12 16 1029.7 1029.7 0.0
28/08:30am 12.5 7.5 6.6 67 2.8 ENE 22 28 12 15 1029.8 1029.8 0.0
28/08:00am 11.8 6.9 6.7 71 2.4 NE 22 30 12 16 1029.8 1029.8 0.0
28/07:30am 11.4 6.5 7.0 74 2.1 NE 22 28 12 15 1029.5 1029.5 0.0
28/07:00am 10.9 6.6 7.1 77 1.8 NE 19 24 10 13 1029.3 1029.3 0.0
28/06:30am 10.1 7.0 7.1 81 1.4 NE 13 17 7 9 1029.3 1029.3 0.0
28/06:00am 10.1 7.3 6.9 80 1.5 ENE 11 15 6 8 1029.1 1029.1 0.0
28/05:30am 10.0 7.2 6.8 80 1.5 ENE 11 19 6 10 1029.1 1029.1 0.0
28/05:00am 10.1 7.3 6.9 80 1.5 ENE 11 24 6 13 1029.1 1029.1 0.0
28/04:30am 10.2 7.4 7.0 80 1.5 ENE 11 15 6 8 1029.1 1029.1 0.0
28/04:00am 11.1 8.8 7.3 77 1.8 ENE 9 13 5 7 1029.3 1029.3 0.0
28/03:30am 10.7 8.5 7.8 82 1.4 E 9 13 5 7 1029.2 1029.2 0.0
28/03:00am 10.8 7.8 7.7 81 1.5 E 13 19 7 10 1029.4 1029.4 0.0
28/02:30am 11.0 7.2 7.7 80 1.6 E 17 24 9 13 1029.4 1029.4 0.0
28/02:00am 11.0 7.2 7.7 80 1.6 E 17 20 9 11 1029.5 1029.5 0.0
28/01:30am 11.0 7.6 7.7 80 1.6 E 15 20 8 11 1029.6 1029.6 0.0
28/01:00am 10.8 7.4 7.7 81 1.5 ESE 15 19 8 10 1029.8 1029.8 0.0
28/12:30am 10.4 7.7 7.2 80 1.5 ESE 11 17 6 9 1029.8 1029.8 0.0
28/12:00am 10.5 7.4 7.3 80 1.5 ESE 13 17 7 9 1029.9 1029.9 0.0
 
Date/Time
WST
Temp
°C
App
Temp
°C
Dew
Point
Rel
Hum
%
Delta-T
°C
Wind Press
QNH
hPa
Press
MSL
hPa
Rain
since 9 am
mm
Dir
 
Spd
km/h
Gust
km/h
Spd
kts
Gust
kts
27/11:30pm 10.9 7.4 7.3 78 1.7 ESE 15 20 8 11 1030.2 1030.2 0.0
27/11:00pm 9.6 6.4 7.0 84 1.2 E 13 15 7 8 1030.2 1030.2 0.0
27/10:30pm 8.0 5.0 6.0 87 0.9 SE 11 13 6 7 1030.3 1030.3 0.0
27/10:00pm 8.9 6.5 7.0 88 0.9 SE 9 13 5 7 1030.2 1030.2 0.0
27/09:30pm 9.0 5.9 7.1 88 0.9 SE 13 15 7 8 1030.2 1030.2 0.0
27/09:00pm 9.3 6.2 7.4 88 0.9 SE 13 15 7 8 1030.1 1030.1 0.0

Other Formats:

Comma delimited format used in spreadsheet applications
http://www.bom.gov.au/fwo/IDW60801/IDW60801.94609.axf

JavaScript Object Notation format (JSON) in row-major order
http://www.bom.gov.au/fwo/IDW60801/IDW60801.94609.json